Temple, TX (76505)

5:22 PM CDT on September 19, 2014 (GMT -0500)
South Temple | Change Station
CLOSE
Current Station
Personal Weather Station
Location: Temple, TX
Elevation: 636 ft
Nearby Weather Stations

Elev 636 ft 31.04 °N, 97.38 °W | Updated 41 seconds ago

Partly Cloudy
Partly Cloudy
85.0 °F
Feels Like 92 °F
N
2.0
Wind Variable Wind from ESE
Gusts 2.0 mph

Today
High -- | Low -- °F
--% Chance of Precip.
Yesterday
High -- | Low -- °F
Precip. -- in
7:15 AM 7:29 PM
Waning Crescent, 16% visible
Pressure 29.88 in
Visibility 10.0 miles
Clouds Few 6500 ft
Heat Index 92 °F
Dew Point 73 °F
Humidity 68%
Rainfall 0.00 in
Snow Depth Not available.
UV 2 out of 12
Pollen 10.00 out of 12
Ozone Good
PM2.5 Good
Flu Activity Not available.
METAR KTPL 192215Z AUTO 06007KT 10SM FEW065 31/19 A2988 RMK AO1

More Conditions Fewer Conditions

Pressure 29.88 in
Visibility 10.0 miles
Clouds Few 6500 ft
Heat Index 92 °F
Dew Point 73 °F
Humidity 68%
Rainfall 0.00 in
Snow Depth Not available.
UV 2 out of 12
Pollen 10.00 out of 12
Ozone Good
PM2.5 Good
Flu Activity Not available.
METAR KTPL 192215Z AUTO 06007KT 10SM FEW065 31/19 A2988 RMK AO1

More Conditions Fewer Conditions

Nowcast | as of 4:06 PM CDT on September 19, 2014

Showers and a few thunderstorms have begun to develop along a Hillsboro to Hearne line. This activity is drifting slowly westward at 5 to 10 mph. Additional showers will be possible through sunset primarily southwest of a Jacksboro to Athens line. Elsewhere...skies will remain partly to mostly cloudy with temperatures in the mid to upper 80s. Winds will be out of the southeast at 5 to 10 mph.

×

10-Day Weather Forecast

Almanac

Astronomy

Sep. 19, 2014 Rise Set
Actual Time 7:15 AM CDT 7:29 PM CDT
Civil Twilight 6:51 AM CDT 7:53 PM CDT
Nautical Twilight 6:23 AM CDT 8:22 PM CDT
Astronomical Twilight 5:54 AM CDT 8:50 PM CDT
Moon 3:15 AM CDT 4:47 PM CDT
Length of Visible Light 13h 02m
Length of Day
12h 13m
Tomorrow will be 1m 52s shorter.
Waning Crescent, 16% of the Moon is Illuminated
Today
Waning Crescent
Sep 24
New
Oct 1
First Quarter
Oct 8
Full
Oct 15
Last Quarter

Today's Extremes

State Highs State Lows

Community

WunderPhotos

Upload Photos

1,754,721 photos uploaded!

WunderBlogs® & News

Nearby

Air Quality

  Air Quality AQ Index Pollutant
Yesterday Good
OZONE
Yesterday Good
PM2.5
Current Good
OZONE
Current Good
PM2.5
Friday Good
PM10
Friday Good
OZONE
Saturday Good
PM10
Saturday Good
OZONE
Sunday Good
PM10
Sunday Good
OZONE
Monday Moderate
OZONE
Monday Good
PM10
Tuesday Moderate
OZONE
Tuesday Good
PM10

Snow Depth

Station Depth Elevation
No new snow has been reported.

Earthquake Activity

City Distance Mag. Time & Date
No recent earthquake activity has been reported nearby.
Minimum magnitude displayed is 2.5.

Coastal Water Temperatures

Place Temperature
No Stations Reporting

Nearby Weather Stations